Friday, April 20, 2018, 6:24 AM EDT
Back to Local

KITH, Ithaca, Ithaca Tompkins Regional Airport

Location: Ithaca, NY, United States Lat: 42.491
Local Time: 6:24 AM EDT (10:24 GMT) Lon: -76.458
Time Zone: US/Eastern Elev: 1099 ft

Show me the last for .
Show Decoded

2018-04-20 05:56 METAR KITH 200956Z AUTO 30009KT 10SM BKN027 M02/M06 A3016 RMK AO2 SLP227
                 T10221056 =
2018-04-20 04:56 METAR KITH 200856Z AUTO 32011G17KT 10SM BKN035 BKN045 M02/M06 A3014 RMK AO2
                 SNB0757E09 SLP219 P0000 60000 T10171056 53015 =
2018-04-20 03:56 METAR KITH 200756Z AUTO 32012KT 10SM BKN032 OVC049 M02/M05 A3012 RMK AO2 SNE40
                 SLP212 P0000 T10171050 =
2018-04-20 02:56 METAR KITH 200656Z AUTO 31009KT 9SM -SN FEW026 SCT040 OVC050 M02/M04 A3010 RMK
                 AO2 SLP206 P0000 T10171039 =
2018-04-20 02:15 METAR KITH 200615Z AUTO 30010KT 9SM -SN FEW015 OVC046 M02/M03 A3009 RMK AO2
                 P0000 =
2018-04-20 02:08 METAR KITH 200608Z AUTO 30008KT 9SM -SN SCT013 BKN019 OVC048 M02/M03 A3009 RMK
                 AO2 P0000 =
2018-04-20 01:56 METAR KITH 200556Z AUTO 30012KT 8SM -SN BKN013 BKN019 OVC047 M02/M03 A3009 RMK
                 AO2 SLP203 P0000 60000 T10171033 11006 21017 51006 =
2018-04-20 01:44 METAR KITH 200544Z AUTO 31012KT 5SM -SN BR BKN013 BKN019 OVC037 M02/M03 A3009
                 RMK AO2 P0000 =
2018-04-20 01:12 METAR KITH 200512Z AUTO 31009KT 9SM -SN SCT009 BKN032 OVC039 M02/M03 A3009 RMK
                 AO2 P0000 =
2018-04-20 00:56 METAR KITH 200456Z AUTO 32011KT 8SM -SN BKN009 BKN018 OVC041 M02/M03 A3009 RMK
                 AO2 SNB07 CIG 007V012 SLP202 P0000 T10171028 400171017 =
2018-04-20 00:42 METAR KITH 200442Z AUTO 30010G16KT 9SM -SN SCT009 BKN014 BKN020 M02/M03 A3009
                 RMK AO2 SNB07 P0000 =
2018-04-20 00:27 METAR KITH 200427Z AUTO 32012KT 4SM -SN BR BKN009 OVC014 M02/M03 A3008 RMK AO2
                 SNB07 CIG 007V013 P0000 =
2018-04-19 23:56 METAR KITH 200356Z AUTO 32010G18KT 9SM FEW006 BKN014 OVC020 M02/M03 A3008 RMK
                 AO2 SNE55 SLP196 P0000 T10171028 =
2018-04-19 23:11 METAR KITH 200311Z AUTO 31014G20KT 3SM R32/5500VP6000FT -SN BR OVC006 M02/M02
                 A3006 RMK AO2 CIG 004V009 P0000 =
2018-04-19 23:01 METAR KITH 200301Z AUTO 31011KT 1 1/2SM R32/3500VP6000FT -SN BR BKN006 OVC013
                 M02/M02 A3006 RMK AO2 VIS 1/2V5 CIG 004V009 P0000 =
2018-04-19 22:56 METAR KITH 200256Z AUTO 30010KT 5SM -SN BR BKN008 OVC013 M02/M02 A3006 RMK AO2
                 CIG 005V009 SLP192 P0000 60000 T10171022 51020 =
2018-04-19 21:56 METAR KITH 200156Z 29015KT 9SM -SN BKN006 BKN010 BKN034 M01/M02 A3005 RMK AO2
                 SLP189 P0000 T10111022 =
2018-04-19 21:45 METAR KITH 200145Z 30014G19KT 9SM -SN BKN008 BKN015 BKN034 M01/M02 A3005 RMK AO2
                 CIG 006V012 P0000 =
2018-04-19 21:28 METAR KITH 200128Z 30014KT 5SM -SN BR FEW008 BKN013 OVC018 M01/M02 A3004 RMK AO2
                 P0000 =
2018-04-19 20:56 METAR KITH 200056Z 31010KT 9SM -SN BKN013 OVC055 M01/M02 A3003 RMK AO2 SLP182
                 P0000 T10111022 =
2018-04-19 19:56 METAR KITH 192356Z 31011G18KT 5SM -SN BR BKN017 OVC065 M01/M03 A3000 RMK AO2
                 SLP171 P0000 60000 T10061028 10017 21006 51028 =
2018-04-19 18:56 METAR KITH 192256Z 31015G21KT 9SM -SN BKN017 BKN070 00/M02 A2997 RMK AO2 SLP161
                 P0000 T00001022 =
2018-04-19 17:56 METAR KITH 192156Z 32015G24KT 4SM R32/5000VP6000FT -SN BR BKN015 OVC025 00/M02
                 A2995 RMK AO2 SLP152 P0000 T00001017 =
2018-04-19 16:56 METAR KITH 192056Z 32012G16KT 4SM -SN BR BKN018 OVC027 01/M02 A2992 RMK AO2
                 UPB04E07SNE04B07 SLP142 P0000 60000 T00061017 53021 =
2018-04-19 15:56 METAR KITH 191956Z 31014G18KT 8SM -SN BKN024 OVC070 02/M01 A2989 RMK AO2 SNB53
                 SLP130 P0000 T00171011 =
2018-04-19 14:56 METAR KITH 191856Z 32017G22KT 10SM BKN024 OVC060 02/M03 A2988 RMK AO2 SNE52
                 SLP128 P0000 T00171028 =
2018-04-19 14:37 METAR KITH 191837Z 32019G25KT 6SM -SN BR BKN017 BKN035 01/M03 A2987 RMK AO2
                 P0000 =
2018-04-19 13:56 METAR KITH 191756Z 32017G24KT 2SM R32/4500VP6000FT -SN BR BKN014 OVC025 01/M02
                 A2985 RMK AO2 SLP120 P0000 60001 T00061017 10017 21006 53024 =
2018-04-19 13:52 METAR KITH 191752Z 32017G24KT 2SM -SN BR BKN014 OVC025 01/M02 A2985 RMK AO2
                 P0000 =
2018-04-19 12:56 METAR KITH 191656Z 32015G21KT 10SM -SN BKN019 OVC027 01/M02 A2982 RMK AO2 SLP108
                 P0001 T00111017 =
2018-04-19 11:56 METAR KITH 191556Z 32009KT 5SM -SN BR BKN012 OVC019 00/M01 A2980 RMK AO2 SLP103
                 P0000 T00001011 =
2018-04-19 10:56 METAR KITH 191456Z 33010KT 2SM -SN BR OVC006 00/M01 A2978 RMK AO2 FZRAB02E06
                 SLP094 P0000 60000 T00001006 51017 =
2018-04-19 10:23 METAR KITH 191423Z 33009KT 2SM -SN BR OVC003 00/M01 A2977 RMK AO2 FZRAB02E06
                 P0000 =
2018-04-19 10:10 METAR KITH 191410Z 33009KT 1/4SM R32/3000V5000FT -SN FZFG OVC003 00/M01 A2977
                 RMK AO2 FZRAB02E06 P0000 =
2018-04-19 09:56 METAR KITH 191356Z 30008KT 1/4SM R32/5500VP6000FT -SN FG OVC003 00/M01 A2977 RMK
                 AO2 SLP090 P0000 T00001006 =
2018-04-19 09:52 METAR KITH 191352Z 30011KT 1/2SM R32/5000VP6000FT -SN BR OVC003 00/M01 A2976 RMK
                 AO2 P0000 =
2018-04-19 09:39 METAR KITH 191339Z 31006KT 1SM R32/5000VP6000FT -SN BR OVC003 00/M01 A2976 RMK
                 AO2 P0000 =
2018-04-19 08:56 METAR KITH 191256Z 29007KT 3SM -SN BR OVC005 00/M01 A2974 RMK AO2 SLP082 P0000
                 T00001011 =
2018-04-19 07:56 METAR KITH 191156Z 31008KT 3SM -SN BR OVC007 M01/M01 A2973 RMK AO2 FZRAE33SNB37
                 SLP076 P0001 60005 70006 T10061011 10000 21006 50005 =
2018-04-19 07:34 METAR KITH 191134Z 31005KT 3SM BR OVC005 M01/M01 A2973 RMK AO2 FZRAE33 P0000 =
2018-04-19 06:56 METAR KITH 191056Z 31007KT 2SM -FZRA BR OVC005 M01/M01 A2973 RMK AO2
                 FZRAB22SNE22 SLP077 P0001 T10061011 =
2018-04-19 06:30 METAR KITH 191030Z 31004KT 2SM -FZRA BR OVC005 M01/M01 A2974 RMK AO2
                 FZRAB22SNE22 P0001 =

Support USWX by starting your Amazon purchase here.